Time;durP1;ratioP1;P1;durP2;ratioP2;P2;SDS_P1;SDS_P2;PMS_P1;PMS_P2;Temp;Humidity;BMP_temperature;BMP_pressure;BME280_temperature;BME280_humidity;BME280_pressure;Samples;Min_cycle;Max_cycle;Signal;HPM_P1;HPM_P2
2021/09/08 00:01:05;;;;;;;8.32;3.45;;;;;;;13.71;100.00;101255.31;5083970;28;20034;-86
2021/09/08 00:03:30;;;;;;;6.53;3.38;;;;;;;13.65;100.00;101253.69;5095505;28;20028;-86
2021/09/08 00:05:56;;;;;;;7.88;4.00;;;;;;;13.63;100.00;101252.00;5076648;28;20028;-86
2021/09/08 00:08:21;;;;;;;7.50;3.80;;;;;;;13.67;100.00;101248.41;5094742;28;20055;-86
2021/09/08 00:10:47;;;;;;;6.38;3.33;;;;;;;13.69;100.00;101250.13;5076386;28;20082;-86
2021/09/08 00:13:12;;;;;;;7.20;3.10;;;;;;;13.62;100.00;101248.53;5076345;28;20114;-86
2021/09/08 00:15:38;;;;;;;8.20;3.75;;;;;;;13.57;100.00;101243.38;5075916;28;20160;-86
2021/09/08 00:18:03;;;;;;;10.27;3.70;;;;;;;13.58;100.00;101244.28;5094387;28;20016;-86
2021/09/08 00:20:28;;;;;;;8.73;3.38;;;;;;;13.57;100.00;101240.78;5075995;28;20384;-86
2021/09/08 00:22:54;;;;;;;7.75;3.72;;;;;;;13.55;100.00;101237.38;5076015;28;20468;-86
2021/09/08 00:25:19;;;;;;;9.57;3.65;;;;;;;13.53;100.00;101239.13;5094287;28;20054;-86
2021/09/08 00:27:45;;;;;;;7.03;3.55;;;;;;;13.57;100.00;101238.19;5094217;28;20028;-86
2021/09/08 00:30:11;;;;;;;10.18;3.92;;;;;;;13.56;100.00;101231.25;5076968;28;20030;-86
2021/09/08 00:32:36;;;;;;;6.93;3.58;;;;;;;13.54;100.00;101238.25;5094761;28;20069;-86
2021/09/08 00:35:03;;;;;;;9.82;3.55;;;;;;;13.46;100.00;101229.72;5076620;28;20388;-86
2021/09/08 00:37:28;;;;;;;10.48;4.30;;;;;;;13.35;100.00;101231.66;5076342;28;20106;-86
2021/09/08 00:39:54;;;;;;;8.85;4.15;;;;;;;13.30;100.00;101230.88;5076631;28;20059;-86
2021/09/08 00:42:19;;;;;;;7.68;4.32;;;;;;;13.22;100.00;101238.81;5093739;28;20024;-86
2021/09/08 00:44:44;;;;;;;8.02;3.88;;;;;;;13.18;100.00;101234.56;5093515;28;20026;-86
2021/09/08 00:47:14;;;;;;;8.15;3.80;;;;;;;13.22;100.00;101235.38;5075166;28;20016;-86
2021/09/08 00:49:40;;;;;;;8.40;4.15;;;;;;;13.20;100.00;101234.53;5075536;28;20055;-86
2021/09/08 00:52:08;;;;;;;9.93;4.10;;;;;;;13.19;100.00;101231.06;5075461;28;20019;-86
2021/09/08 00:54:33;;;;;;;11.20;3.92;;;;;;;13.20;100.00;101221.50;5094220;28;20103;-86
2021/09/08 00:57:03;;;;;;;8.63;4.28;;;;;;;13.19;100.00;101227.59;5076380;28;20112;-86
2021/09/08 00:59:28;;;;;;;10.18;4.38;;;;;;;13.16;100.00;101222.47;5076226;28;20041;-86
2021/09/08 01:01:53;;;;;;;9.15;4.00;;;;;;;13.21;100.00;101220.59;5076340;28;20136;-86
2021/09/08 01:04:18;;;;;;;6.97;3.85;;;;;;;13.19;100.00;101225.84;5076541;28;20020;-86
2021/09/08 01:06:44;;;;;;;11.75;4.45;;;;;;;13.23;100.00;101222.31;5094124;28;20353;-86
2021/09/08 01:09:11;;;;;;;7.80;3.95;;;;;;;13.20;100.00;101213.69;5076180;28;20017;-86
2021/09/08 01:11:37;;;;;;;7.65;4.22;;;;;;;13.09;100.00;101217.34;5076123;28;20046;-86
2021/09/08 01:14:02;;;;;;;8.55;3.97;;;;;;;13.09;100.00;101211.28;5094269;28;20071;-86
2021/09/08 01:16:27;;;;;;;8.68;3.78;;;;;;;13.18;100.00;101210.25;5075986;28;20114;-86
2021/09/08 01:18:53;;;;;;;7.88;4.30;;;;;;;13.09;100.00;101209.53;5094000;28;20059;-86
2021/09/08 01:21:19;;;;;;;6.97;3.95;;;;;;;13.00;100.00;101209.72;5076497;28;20020;-86
2021/09/08 01:23:44;;;;;;;8.38;3.90;;;;;;;12.99;100.00;101201.91;5076560;28;20055;-85
2021/09/08 01:26:09;;;;;;;7.18;3.90;;;;;;;13.04;100.00;101202.69;5094480;28;20024;-86
2021/09/08 01:28:35;;;;;;;9.32;4.07;;;;;;;12.97;100.00;101204.56;5076641;28;20043;-86
2021/09/08 01:31:03;;;;;;;12.40;4.05;;;;;;;12.95;100.00;101206.31;5076532;28;20035;-86
2021/09/08 01:33:28;;;;;;;9.60;4.20;;;;;;;12.93;100.00;101202.91;5094439;28;20082;-86
2021/09/08 01:35:53;;;;;;;6.63;3.58;;;;;;;12.89;100.00;101203.81;5075843;28;20388;-86
2021/09/08 01:38:19;;;;;;;8.95;3.92;;;;;;;12.94;100.00;101199.41;5094601;28;20479;-86
2021/09/08 01:40:44;;;;;;;10.00;3.95;;;;;;;12.92;100.00;101201.16;5076535;28;20042;-86
2021/09/08 01:43:10;;;;;;;6.72;4.05;;;;;;;12.90;100.00;101196.00;5076254;28;20020;-86
2021/09/08 01:45:40;;;;;;;6.38;3.50;;;;;;;12.88;100.00;101194.31;5095937;22;20044;-81
2021/09/08 01:48:05;;;;;;;7.38;3.75;;;;;;;12.86;100.00;101196.91;5082552;28;20033;-80
2021/09/08 01:50:31;;;;;;;12.43;4.03;;;;;;;12.88;100.00;101197.75;5080725;28;20115;-80
2021/09/08 01:52:57;;;;;;;8.45;4.25;;;;;;;12.95;100.00;101193.28;5062161;28;20387;-80
2021/09/08 01:55:22;;;;;;;7.10;3.83;;;;;;;12.95;100.00;101189.84;5080498;28;20020;-80
2021/09/08 01:57:47;;;;;;;8.60;3.03;;;;;;;12.92;100.00;101193.34;5081723;28;20228;-80
2021/09/08 02:00:14;;;;;;;14.63;4.40;;;;;;;12.96;100.00;101191.53;5084892;28;20075;-80
2021/09/08 02:02:39;;;;;;;9.93;4.20;;;;;;;12.92;100.00;101195.09;5067742;28;20024;-80
2021/09/08 02:05:05;;;;;;;9.82;4.18;;;;;;;12.94;100.00;101195.94;5085292;28;20118;-80
2021/09/08 02:07:30;;;;;;;8.05;3.88;;;;;;;12.94;100.00;101196.78;5085160;28;20030;-80
2021/09/08 02:09:56;;;;;;;8.20;3.83;;;;;;;12.93;100.00;101200.31;5066877;28;20111;-80
2021/09/08 02:12:22;;;;;;;8.88;3.60;;;;;;;12.92;100.00;101192.50;5067213;28;20024;-80
2021/09/08 02:14:47;;;;;;;8.63;4.05;;;;;;;12.89;100.00;101191.66;5085512;28;20116;-80
2021/09/08 02:17:12;;;;;;;9.45;4.70;;;;;;;12.85;100.00;101195.22;5067425;28;20088;-80
2021/09/08 02:19:37;;;;;;;10.75;4.78;;;;;;;12.78;100.00;101196.22;5067139;28;20032;-80
2021/09/08 02:22:03;;;;;;;9.02;4.03;;;;;;;12.80;100.00;101196.16;5066493;28;20029;-80
2021/09/08 02:24:28;;;;;;;8.10;4.05;;;;;;;12.80;100.00;101196.16;5085074;28;20085;-80
2021/09/08 02:26:54;;;;;;;8.98;4.30;;;;;;;12.76;100.00;101192.75;5088465;28;20016;-81
2021/09/08 02:29:19;;;;;;;8.13;4.35;;;;;;;12.74;100.00;101191.91;5085742;28;20399;-80
2021/09/08 02:31:44;;;;;;;8.82;4.28;;;;;;;12.72;100.00;101198.06;5086382;28;20020;-80
2021/09/08 02:34:10;;;;;;;7.93;4.25;;;;;;;12.67;100.00;101198.97;5068975;28;20021;-80
2021/09/08 02:36:35;;;;;;;7.95;4.13;;;;;;;12.69;100.00;101195.50;5068807;28;20476;-80
2021/09/08 02:39:01;;;;;;;11.18;4.97;;;;;;;12.76;100.00;101199.72;5069643;28;20034;-80
2021/09/08 02:41:27;;;;;;;9.93;4.47;;;;;;;12.83;100.00;101201.31;5069373;28;20024;-80
2021/09/08 02:43:52;;;;;;;7.68;4.18;;;;;;;12.81;100.00;101193.56;5087541;28;20059;-80
2021/09/08 02:46:18;;;;;;;10.43;5.10;;;;;;;12.81;100.00;101188.34;5087640;28;20028;-80
2021/09/08 02:48:43;;;;;;;11.35;5.00;;;;;;;12.77;100.00;101191.00;5066308;28;20065;-80
2021/09/08 02:51:08;;;;;;;9.38;5.13;;;;;;;12.81;100.00;101188.34;5068576;28;20024;-80
2021/09/08 02:53:34;;;;;;;11.40;4.90;;;;;;;12.82;100.00;101184.00;5065722;28;20032;-80
2021/09/08 02:56:00;;;;;;;15.38;5.15;;;;;;;12.77;100.00;101178.00;5084838;28;20078;-80
2021/09/08 02:58:26;;;;;;;7.85;4.55;;;;;;;12.73;100.00;101176.34;5064940;28;20107;-80
2021/09/08 03:00:51;;;;;;;8.80;5.00;;;;;;;12.71;100.00;101176.34;5064233;28;20059;-80
2021/09/08 03:03:18;;;;;;;9.98;5.38;;;;;;;12.79;100.00;101177.09;5064730;28;20043;-80
2021/09/08 03:05:44;;;;;;;10.38;4.97;;;;;;;12.80;100.00;101176.19;5082790;28;20021;-80
2021/09/08 03:08:09;;;;;;;9.30;5.10;;;;;;;12.74;100.00;101178.91;5083026;28;20055;-80
2021/09/08 03:10:35;;;;;;;9.95;5.35;;;;;;;12.71;100.00;101178.09;5083870;28;20032;-80
2021/09/08 03:13:00;;;;;;;10.13;5.53;;;;;;;12.66;100.00;101173.84;5083352;28;20438;-80
2021/09/08 03:15:26;;;;;;;11.25;5.60;;;;;;;12.61;100.00;101173.06;5064550;28;20051;-80
2021/09/08 03:17:51;;;;;;;9.00;5.57;;;;;;;12.53;100.00;101167.13;5083845;28;20025;-80
2021/09/08 03:20:17;;;;;;;9.20;5.30;;;;;;;12.57;100.00;101171.41;5082671;28;20095;-80
2021/09/08 03:22:42;;;;;;;12.20;5.60;;;;;;;12.55;100.00;101165.34;5085204;28;20025;-81
2021/09/08 03:25:08;;;;;;;8.32;5.22;;;;;;;12.52;100.00;101152.38;5068006;28;20024;-81
2021/09/08 03:27:34;;;;;;;9.45;5.43;;;;;;;12.48;100.00;101158.53;5087065;28;20074;-81
2021/09/08 03:29:59;;;;;;;12.23;5.55;;;;;;;12.49;100.00;101156.78;5084694;28;20029;-81
2021/09/08 03:32:24;;;;;;;11.65;6.05;;;;;;;12.52;100.00;101154.13;5067714;28;20017;-80
2021/09/08 03:34:49;;;;;;;13.13;6.00;;;;;;;12.49;100.00;101156.78;5066380;28;20024;-80
2021/09/08 03:37:15;;;;;;;11.80;6.60;;;;;;;12.54;100.00;101144.56;5066395;28;20020;-80
2021/09/08 03:39:40;;;;;;;13.23;6.53;;;;;;;12.62;100.00;101151.38;5066756;28;20020;-80
2021/09/08 03:42:05;;;;;;;9.52;6.05;;;;;;;12.70;100.00;101147.78;5084741;28;20048;-80
2021/09/08 03:44:31;;;;;;;10.65;6.30;;;;;;;12.70;100.00;101145.16;5084892;28;20025;-80
2021/09/08 03:46:56;;;;;;;10.35;5.95;;;;;;;12.69;100.00;101148.66;5065778;28;20024;-81
2021/09/08 03:49:21;;;;;;;11.10;6.72;;;;;;;12.64;100.00;101148.72;5066371;28;20024;-80
2021/09/08 03:51:47;;;;;;;11.38;5.90;;;;;;;12.62;100.00;101140.97;5085156;28;20044;-80
2021/09/08 03:54:12;;;;;;;12.18;6.55;;;;;;;12.56;100.00;101143.66;5087369;28;20028;-80
2021/09/08 03:56:37;;;;;;;11.48;6.80;;;;;;;12.53;100.00;101151.53;5067511;28;20024;-80
2021/09/08 03:59:03;;;;;;;14.00;6.25;;;;;;;12.45;100.00;101137.78;5067719;28;20115;-80
2021/09/08 04:01:28;;;;;;;12.18;6.30;;;;;;;12.43;100.00;101145.59;5067420;28;20031;-80
2021/09/08 04:03:53;;;;;;;12.05;7.32;;;;;;;12.37;100.00;101142.22;5069024;28;20053;-80
2021/09/08 04:06:19;;;;;;;13.00;6.40;;;;;;;12.34;100.00;101142.28;5086273;28;20016;-80
2021/09/08 04:08:45;;;;;;;11.35;6.88;;;;;;;12.31;100.00;101144.94;5068313;28;20058;-80
2021/09/08 04:11:10;;;;;;;11.13;6.80;;;;;;;12.29;100.00;101144.97;5085997;28;20391;-80
2021/09/08 04:13:36;;;;;;;13.52;6.97;;;;;;;12.30;100.00;101146.69;5068364;28;20499;-80
2021/09/08 04:16:01;;;;;;;12.52;6.75;;;;;;;12.27;100.00;101144.13;5068906;28;20081;-80
2021/09/08 04:18:26;;;;;;;10.80;6.32;;;;;;;12.23;100.00;101152.88;5068746;28;20388;-80
2021/09/08 04:20:52;;;;;;;14.02;7.13;;;;;;;12.20;100.00;101145.97;5086213;28;20035;-80
2021/09/08 04:23:17;;;;;;;13.10;7.57;;;;;;;12.20;100.00;101147.72;5070100;28;20464;-80
2021/09/08 04:25:42;;;;;;;14.32;6.70;;;;;;;12.18;100.00;101141.66;5067857;28;20024;-80
2021/09/08 04:28:08;;;;;;;12.13;7.13;;;;;;;12.14;100.00;101153.00;5067462;28;20028;-80
2021/09/08 04:30:33;;;;;;;12.40;7.35;;;;;;;12.13;100.00;101146.06;5085891;28;20540;-80
2021/09/08 04:32:58;;;;;;;16.40;7.78;;;;;;;12.20;100.00;101150.31;5067716;28;20039;-80
2021/09/08 04:35:23;;;;;;;10.82;6.68;;;;;;;12.16;100.00;101138.22;5086020;28;20080;-80
2021/09/08 04:37:49;;;;;;;11.93;6.65;;;;;;;12.12;100.00;101144.38;5085905;28;20031;-80
2021/09/08 04:40:14;;;;;;;21.85;8.13;;;;;;;12.06;100.00;101145.31;5086626;28;20029;-80
2021/09/08 04:42:39;;;;;;;11.98;6.97;;;;;;;12.03;100.00;101145.34;5085105;28;20032;-80
2021/09/08 04:45:05;;;;;;;12.05;7.38;;;;;;;12.06;100.00;101149.66;5085434;28;20456;-80
2021/09/08 04:47:30;;;;;;;14.93;7.70;;;;;;;12.05;100.00;101146.22;5090118;28;20032;-80
2021/09/08 04:49:56;;;;;;;15.25;7.50;;;;;;;12.09;100.00;101139.22;5069061;28;20024;-80
2021/09/08 04:52:21;;;;;;;14.32;7.60;;;;;;;12.16;100.00;101136.50;5067790;28;20035;-80
2021/09/08 04:54:46;;;;;;;11.88;7.38;;;;;;;12.23;100.00;101142.47;5086752;28;20103;-80
2021/09/08 04:57:11;;;;;;;14.05;7.18;;;;;;;12.28;100.00;101139.78;5086002;28;20028;-80
2021/09/08 04:59:37;;;;;;;16.38;7.72;;;;;;;12.26;100.00;101149.38;5088892;28;20021;-80
2021/09/08 05:02:02;;;;;;;12.25;7.75;;;;;;;12.24;100.00;101148.53;5088262;28;20035;-80
2021/09/08 05:04:27;;;;;;;21.02;8.10;;;;;;;12.25;100.00;101150.22;5070147;28;20119;-80
2021/09/08 05:06:53;;;;;;;13.32;7.65;;;;;;;12.28;100.00;101156.25;5086979;28;20357;-80
2021/09/08 05:09:18;;;;;;;16.02;7.95;;;;;;;12.32;100.00;101150.13;5085487;28;20029;-80
2021/09/08 05:11:43;;;;;;;16.42;7.20;;;;;;;12.36;100.00;101153.53;5068573;28;20040;-80
2021/09/08 05:14:09;;;;;;;12.85;7.18;;;;;;;12.44;100.00;101157.72;5066424;28;20021;-80
2021/09/08 05:16:36;;;;;;;11.35;6.82;;;;;;;12.41;100.00;101164.75;5067938;28;20111;-80
2021/09/08 05:19:01;;;;;;;14.57;7.00;;;;;;;12.43;100.00;101161.19;5068224;28;20021;-80
2021/09/08 05:21:26;;;;;;;13.65;7.60;;;;;;;12.41;100.00;101156.94;5087214;28;20032;-80
2021/09/08 05:23:51;;;;;;;13.57;6.85;;;;;;;12.41;100.00;101159.53;5087157;28;20026;-80
2021/09/08 05:26:17;;;;;;;10.85;6.85;;;;;;;12.44;100.00;101162.09;5088792;28;20032;-80
2021/09/08 05:28:42;;;;;;;12.98;7.40;;;;;;;12.45;100.00;101153.38;5068087;28;20046;-79
2021/09/08 05:31:07;;;;;;;18.67;7.85;;;;;;;12.50;100.00;101150.69;5065063;28;20028;-79
2021/09/08 05:33:33;;;;;;;14.85;7.32;;;;;;;12.54;100.00;101154.97;5087317;28;20036;-79
2021/09/08 05:35:59;;;;;;;13.13;7.00;;;;;;;12.57;100.00;101155.78;5089418;28;20028;-79
2021/09/08 05:38:24;;;;;;;12.60;6.82;;;;;;;12.67;100.00;101166.91;5071380;28;20484;-80
2021/09/08 05:40:50;;;;;;;14.13;7.63;;;;;;;12.74;100.00;101157.22;5089814;28;20033;-80
2021/09/08 05:43:15;;;;;;;16.83;6.55;;;;;;;12.82;100.00;101160.56;5072196;28;20435;-80
2021/09/08 05:45:41;;;;;;;12.77;7.72;;;;;;;12.86;100.00;101154.41;5089395;28;20032;-80
2021/09/08 05:48:06;;;;;;;14.95;7.43;;;;;;;12.94;100.00;101162.94;5090983;28;20024;-80
2021/09/08 05:50:31;;;;;;;14.63;7.80;;;;;;;13.02;100.00;101160.19;5071969;28;20053;-80
2021/09/08 05:52:57;;;;;;;15.63;8.68;;;;;;;13.12;100.00;101157.41;5086303;28;20492;-80
2021/09/08 05:55:22;;;;;;;15.20;8.20;;;;;;;13.20;100.00;101157.22;5087073;28;20028;-80
2021/09/08 05:57:47;;;;;;;14.95;8.02;;;;;;;13.45;100.00;101160.25;5071151;28;20271;-80
2021/09/08 06:00:13;;;;;;;14.50;7.68;;;;;;;13.64;100.00;101159.84;5085236;28;20040;-80
2021/09/08 06:02:38;;;;;;;16.95;8.55;;;;;;;14.21;100.00;101164.66;5083261;28;20028;-80
2021/09/08 06:05:05;;;;;;;13.80;8.20;;;;;;;14.64;100.00;101155.81;5065857;28;20029;-80
2021/09/08 06:07:30;;;;;;;21.17;7.95;;;;;;;14.96;100.00;101163.69;5084570;28;20017;-80
2021/09/08 06:09:55;;;;;;;14.88;7.80;;;;;;;15.31;100.00;101163.63;5086948;28;20461;-80
2021/09/08 06:12:20;;;;;;;16.60;7.93;;;;;;;15.64;100.00;101162.66;5068470;28;20029;-80
2021/09/08 06:14:46;;;;;;;15.00;8.32;;;;;;;15.76;100.00;101156.19;5070022;28;20032;-80
2021/09/08 06:17:11;;;;;;;15.25;8.35;;;;;;;16.14;100.00;101162.03;5069414;28;20031;-80
2021/09/08 06:19:36;;;;;;;18.70;8.70;;;;;;;16.33;100.00;101157.91;5069793;28;20032;-80
2021/09/08 06:22:03;;;;;;;20.35;7.97;;;;;;;16.57;100.00;101150.16;5069265;28;20073;-80
2021/09/08 06:24:28;;;;;;;18.13;9.43;;;;;;;16.93;100.00;101152.44;5069533;28;20040;-80
2021/09/08 06:26:53;;;;;;;16.58;9.73;;;;;;;16.96;100.00;101150.59;5086410;28;20020;-81
2021/09/08 06:29:20;;;;;;;14.65;8.65;;;;;;;17.08;100.00;101151.06;5085826;28;20047;-80
2021/09/08 06:31:45;;;;;;;16.45;8.40;;;;;;;17.04;100.00;101142.44;5068180;28;20059;-81
2021/09/08 06:34:10;;;;;;;15.32;8.27;;;;;;;17.09;100.00;101144.88;5067865;28;20024;-81
2021/09/08 06:36:36;;;;;;;25.98;8.18;;;;;;;17.37;100.00;101147.38;5079886;28;20099;-81
2021/09/08 06:39:01;;;;;;;19.08;8.63;;;;;;;17.69;100.00;101152.25;5058945;28;20392;-81
2021/09/08 06:41:26;;;;;;;15.90;8.75;;;;;;;18.26;100.00;101144.81;5059764;28;20032;-80
2021/09/08 06:43:52;;;;;;;14.88;8.45;;;;;;;18.52;100.00;101150.75;5059000;28;20027;-80
2021/09/08 06:46:17;;;;;;;16.60;8.10;;;;;;;18.59;100.00;101150.41;5077905;28;20024;-80
2021/09/08 06:48:43;;;;;;;19.20;8.38;;;;;;;18.46;100.00;101146.59;5060692;28;20028;-80
2021/09/08 06:51:09;;;;;;;15.80;8.43;;;;;;;18.14;100.00;101138.28;5078472;28;20476;-80
2021/09/08 06:53:34;;;;;;;16.73;8.57;;;;;;;18.48;100.00;101136.06;5060113;28;20025;-80
2021/09/08 06:55:59;;;;;;;15.30;8.02;;;;;;;18.75;100.00;101134.03;5077183;28;20020;-80
2021/09/08 06:58:24;;;;;;;17.52;7.95;;;;;;;18.72;100.00;101140.25;5081376;28;20065;-81
2021/09/08 07:00:50;;;;;;;14.30;8.18;;;;;;;18.96;100.00;101134.88;5062860;28;20495;-81
2021/09/08 07:03:15;;;;;;;21.75;8.75;;;;;;;18.83;100.00;101129.31;5065126;28;20024;-81
2021/09/08 07:05:40;;;;;;;15.65;7.90;;;;;;;19.15;100.00;101140.19;5081662;28;20016;-81
2021/09/08 07:08:07;;;;;;;17.10;8.02;;;;;;;19.61;100.00;101127.56;5083850;28;20046;-81
2021/09/08 07:10:32;;;;;;;21.23;8.70;;;;;;;19.98;100.00;101130.19;5080123;28;20441;-81
2021/09/08 07:12:58;;;;;;;21.70;12.32;;;;;;;20.40;100.00;101123.72;5061287;28;20103;-81
2021/09/08 07:15:23;;;;;;;20.50;9.73;;;;;;;19.86;100.00;101127.28;5060866;28;20031;-80
2021/09/08 07:17:48;;;;;;;23.75;8.70;;;;;;;20.34;98.06;101124.03;5061161;28;20245;-81
2021/09/08 07:20:13;;;;;;;22.45;8.40;;;;;;;20.16;99.17;101125.78;5060550;28;20031;-81
2021/09/08 07:22:39;;;;;;;20.55;7.55;;;;;;;19.81;100.00;101124.03;5080275;28;20063;-81
2021/09/08 07:25:05;;;;;;;17.17;6.78;;;;;;;20.27;98.06;101116.53;5061539;28;20051;-81
2021/09/08 07:27:30;;;;;;;20.45;7.32;;;;;;;20.24;99.61;101117.53;5060480;28;20077;-82
2021/09/08 07:29:55;;;;;;;18.25;6.32;;;;;;;20.97;96.54;101118.22;5060467;28;20031;-82
2021/09/08 07:32:21;;;;;;;17.90;6.95;;;;;;;20.56;93.64;101125.63;5065699;28;20040;-82
2021/09/08 07:34:46;;;;;;;14.90;7.32;;;;;;;20.51;93.36;101119.72;5086016;28;20485;-82
2021/09/08 07:37:11;;;;;;;17.48;6.65;;;;;;;21.62;90.02;101120.03;5064869;28;20489;-83
2021/09/08 07:39:37;;;;;;;14.68;6.85;;;;;;;21.66;90.00;101118.94;5079957;28;20532;-83
2021/09/08 07:42:03;;;;;;;17.27;6.95;;;;;;;21.95;87.34;101123.44;5079297;28;20024;-83
2021/09/08 07:44:29;;;;;;;15.20;6.40;;;;;;;22.62;84.91;101123.09;5079451;28;20412;-83
2021/09/08 07:46:54;;;;;;;13.13;6.40;;;;;;;21.94;83.65;101115.59;5073693;22;20041;-83
2021/09/08 07:49:19;;;;;;;17.90;7.20;;;;;;;21.63;84.84;101117.31;5060797;28;20079;-83
2021/09/08 07:51:45;;;;;;;13.63;6.47;;;;;;;21.47;83.33;101114.66;5060370;28;20120;-83
2021/09/08 07:54:10;;;;;;;12.02;6.93;;;;;;;21.66;84.83;101118.94;5042730;28;20025;-83
2021/09/08 07:56:36;;;;;;;13.77;6.22;;;;;;;22.06;80.59;101110.44;5059198;28;20518;-83
2021/09/08 07:59:01;;;;;;;12.70;6.63;;;;;;;22.13;80.79;101116.22;5059964;28;20017;-83
2021/09/08 08:01:29;;;;;;;19.70;6.25;;;;;;;22.63;77.26;101115.09;5059887;28;20155;-83
2021/09/08 08:03:54;;;;;;;14.35;6.13;;;;;;;22.14;76.69;101106.53;5059910;28;20029;-83
2021/09/08 08:06:20;;;;;;;11.85;5.82;;;;;;;22.57;75.92;101110.19;5060313;28;20427;-83
2021/09/08 08:08:45;;;;;;;12.50;6.28;;;;;;;22.56;78.20;101107.59;5060718;28;20048;-83
2021/09/08 08:11:10;;;;;;;10.30;5.70;;;;;;;23.07;73.04;101106.28;5042677;28;20451;-83
2021/09/08 08:13:36;;;;;;;12.35;6.25;;;;;;;22.64;77.51;101103.56;5060252;28;20036;-83
2021/09/08 08:16:01;;;;;;;14.45;5.57;;;;;;;22.52;76.10;101096.38;5042708;28;20025;-83
2021/09/08 08:18:26;;;;;;;13.27;6.35;;;;;;;22.35;78.72;101093.88;5061781;28;20021;-83
2021/09/08 08:20:52;;;;;;;10.57;5.85;;;;;;;22.14;78.95;101096.81;5041794;28;20060;-83
2021/09/08 08:23:17;;;;;;;16.37;6.23;;;;;;;23.05;72.51;101099.38;5060683;28;20043;-83
2021/09/08 08:25:42;;;;;;;9.98;5.53;;;;;;;22.80;75.27;101110.56;5060708;28;20275;-83
2021/09/08 08:28:07;;;;;;;10.83;5.77;;;;;;;23.26;71.95;101102.50;5059482;28;20017;-83
2021/09/08 08:30:35;;;;;;;10.82;5.88;;;;;;;23.13;71.93;101097.13;5059329;28;20343;-83
2021/09/08 08:33:01;;;;;;;15.98;7.00;;;;;;;22.88;72.37;101097.75;5059004;28;20051;-83
2021/09/08 08:35:27;;;;;;;10.38;6.03;;;;;;;23.38;69.65;101085.81;5060062;28;20054;-83
2021/09/08 08:37:52;;;;;;;12.88;5.63;;;;;;;23.71;72.45;101089.91;5041556;28;20124;-83
2021/09/08 08:40:19;;;;;;;12.68;5.85;;;;;;;23.95;69.48;101077.72;5042340;28;20035;-83
2021/09/08 08:42:45;;;;;;;14.10;5.82;;;;;;;23.83;71.20;101082.06;5041708;28;20078;-83
2021/09/08 08:45:12;;;;;;;14.00;5.68;;;;;;;24.20;70.44;101086.69;5060251;28;20025;-83
2021/09/08 08:47:37;;;;;;;12.93;5.65;;;;;;;23.35;72.67;101084.22;5041022;28;20108;-83
2021/09/08 08:50:09;;;;;;;16.67;6.47;;;;;;;23.89;72.69;101092.25;5059158;28;20049;-83
2021/09/08 08:52:34;;;;;;;16.73;5.47;;;;;;;23.64;71.53;101085.00;5059771;28;20021;-83
2021/09/08 08:55:00;;;;;;;12.52;5.88;;;;;;;23.39;70.68;101079.56;5041481;28;20037;-84
2021/09/08 08:57:26;;;;;;;9.93;5.68;;;;;;;24.02;70.32;101076.38;5060883;28;20029;-83
2021/09/08 08:59:51;;;;;;;9.75;5.18;;;;;;;23.86;66.48;101080.97;5042036;28;20500;-83
2021/09/08 09:02:27;;;;;;;11.82;5.03;;;;;;;24.04;66.68;101085.06;5042797;28;20033;-84
2021/09/08 09:04:58;;;;;;;15.52;5.50;;;;;;;24.21;66.29;101091.91;5060673;28;20069;-83
2021/09/08 09:07:43;;;;;;;10.10;5.28;;;;;;;23.89;67.77;101086.06;5059926;28;20025;-83
2021/09/08 09:10:12;;;;;;;12.63;5.25;;;;;;;23.41;68.20;101083.00;5043737;28;20059;-83
2021/09/08 09:12:40;;;;;;;15.10;5.72;;;;;;;23.81;67.65;101073.34;5040374;28;20028;-84
2021/09/08 09:15:10;;;;;;;9.13;4.60;;;;;;;24.04;67.30;101074.47;5037694;28;20120;-84
2021/09/08 09:17:36;;;;;;;11.18;5.75;;;;;;;24.08;66.29;101072.47;5039247;28;20032;-84
2021/09/08 09:20:06;;;;;;;11.98;4.93;;;;;;;24.41;64.50;101068.50;5057519;28;20035;-84
2021/09/08 09:22:55;;;;;;;8.70;4.75;;;;;;;24.12;65.57;101074.81;5038806;28;20025;-84
2021/09/08 09:25:26;;;;;;;8.80;4.47;;;;;;;24.07;65.78;101068.97;5039051;28;20485;-84
2021/09/08 09:27:54;;;;;;;9.05;4.68;;;;;;;24.68;65.96;101068.44;5038623;28;20021;-84
2021/09/08 09:30:25;;;;;;;10.40;5.00;;;;;;;23.46;65.55;101070.31;5038673;28;20489;-84
2021/09/08 09:32:53;;;;;;;12.50;5.22;;;;;;;24.37;67.27;101072.31;5053900;28;20059;-85
2021/09/08 09:35:21;;;;;;;9.63;5.22;;;;;;;24.44;65.13;101068.31;5035835;28;20025;-85
2021/09/08 09:38:13;;;;;;;13.88;5.25;;;;;;;24.29;65.25;101064.88;5036318;28;20079;-84
2021/09/08 09:40:38;;;;;;;7.75;4.47;;;;;;;24.35;65.60;101051.19;5036749;28;20405;-84
2021/09/08 09:43:06;;;;;;;11.27;4.85;;;;;;;24.55;62.88;101056.03;5038666;28;20017;-84
2021/09/08 09:45:36;;;;;;;12.38;5.28;;;;;;;24.30;62.58;101056.81;5038432;28;20024;-84
2021/09/08 09:48:03;;;;;;;9.32;4.82;;;;;;;23.75;64.28;101049.06;5037582;28;20036;-84
2021/09/08 09:50:29;;;;;;;9.63;4.93;;;;;;;24.05;65.46;101054.97;5036847;28;20036;-84
2021/09/08 09:52:54;;;;;;;10.52;5.38;;;;;;;23.10;66.55;101042.56;5036324;28;20021;-84
2021/09/08 09:55:24;;;;;;;11.85;5.47;;;;;;;23.81;65.96;101041.56;5036688;28;20508;-85
2021/09/08 09:57:50;;;;;;;8.45;4.53;;;;;;;23.77;64.60;101040.06;5055189;28;20040;-84
2021/09/08 10:00:18;;;;;;;11.07;5.03;;;;;;;24.08;64.59;101041.53;5054875;28;20385;-84
2021/09/08 10:02:44;;;;;;;10.07;4.90;;;;;;;24.06;63.16;101043.41;5038627;28;20025;-84
2021/09/08 10:05:11;;;;;;;11.20;5.60;;;;;;;25.33;58.62;101036.38;5038865;28;20021;-84
2021/09/08 10:07:37;;;;;;;10.88;5.85;;;;;;;25.44;58.03;101032.97;5056388;28;20014;-84
2021/09/08 10:10:12;;;;;;;10.05;5.15;;;;;;;25.73;61.74;101031.66;5038049;28;20021;-84
2021/09/08 10:12:43;;;;;;;8.43;5.05;;;;;;;25.99;56.23;101036.03;5038555;28;20060;-84
2021/09/08 10:15:09;;;;;;;15.50;5.82;;;;;;;25.60;56.93;101027.38;5038973;28;20024;-84
2021/09/08 10:17:43;;;;;;;7.85;4.28;;;;;;;24.89;56.19;101031.59;5036796;28;20029;-85
2021/09/08 10:20:14;;;;;;;8.55;4.45;;;;;;;25.62;57.86;101017.50;5041137;28;20503;-84
2021/09/08 10:22:43;;;;;;;7.90;3.50;;;;;;;24.57;55.40;101019.63;5041168;28;20429;-84
2021/09/08 10:25:17;;;;;;;8.80;4.30;;;;;;;25.53;54.28;101018.16;5058635;28;20029;-84
2021/09/08 10:27:43;;;;;;;7.28;3.97;;;;;;;26.62;51.37;101016.09;5059289;28;20025;-84
2021/09/08 10:30:10;;;;;;;6.78;3.65;;;;;;;26.51;48.35;101006.31;5041187;28;20029;-85
2021/09/08 10:32:37;;;;;;;8.68;3.40;;;;;;;25.38;52.02;101005.03;5041017;28;20032;-84
2021/09/08 10:35:16;;;;;;;8.35;3.85;;;;;;;24.88;53.31;100998.91;5060363;28;20029;-84
2021/09/08 10:37:47;;;;;;;10.18;3.92;;;;;;;24.97;51.46;101008.88;5040891;28;20504;-84
2021/09/08 10:40:15;;;;;;;7.88;3.47;;;;;;;25.48;49.92;100992.78;5042252;28;20040;-84
2021/09/08 10:43:06;;;;;;;6.75;3.25;;;;;;;26.06;48.26;101002.69;5040935;28;20476;-84
2021/09/08 10:45:32;;;;;;;8.98;3.53;;;;;;;26.93;46.72;100995.03;5040930;28;20067;-84
2021/09/08 10:47:59;;;;;;;8.32;3.65;;;;;;;26.49;48.44;100996.75;5058167;28;20489;-84
2021/09/08 10:50:34;;;;;;;7.05;3.40;;;;;;;27.81;45.93;100986.94;5040511;28;20480;-84
2021/09/08 10:53:03;;;;;;;6.47;3.30;;;;;;;28.64;45.13;100990.53;5040806;28;20044;-84
2021/09/08 10:55:42;;;;;;;10.70;4.10;;;;;;;28.09;43.24;100985.44;5039557;28;20071;-84
2021/09/08 10:58:07;;;;;;;11.00;3.55;;;;;;;28.57;43.95;100984.03;5057683;28;20025;-84
2021/09/08 11:00:36;;;;;;;8.38;4.00;;;;;;;26.39;46.76;100984.13;5038428;28;20056;-84
2021/09/08 11:03:02;;;;;;;5.97;3.05;;;;;;;27.24;45.60;100975.63;5038278;28;20021;-84
2021/09/08 11:05:28;;;;;;;8.77;3.60;;;;;;;27.00;44.35;100981.13;5037958;28;20025;-84
2021/09/08 11:07:53;;;;;;;7.90;3.67;;;;;;;27.30;43.36;100969.78;5038587;28;20032;-84
2021/09/08 11:10:29;;;;;;;8.38;3.67;;;;;;;27.11;45.42;100971.41;5056870;28;20021;-84